Aviation Digital Data Service (ADDS)

Output produced by METARs form (1238 UTC 09 December 2019)
found at http://aviationweather.gov/metar/data/
 
TAF COR EPDA 091103Z 0912/0921 22010KT 9999 BKN040 
     PROB30 
     TEMPO 0915/0921 SHRA SCT015CB 
     TEMPO 0912/0921 22015G25KT